createdAt,value
2023-09-07T00:09:23.390Z,4.60
2023-09-07T00:13:27.475Z,6.13
2023-09-07T00:17:35.921Z,4.40
2023-09-07T00:21:43.290Z,3.40
2023-09-07T00:25:48.804Z,4.83
2023-09-07T00:29:52.819Z,4.90
2023-09-07T00:33:56.873Z,5.00
2023-09-07T00:38:20.031Z,4.63
2023-09-07T00:42:25.427Z,5.47
2023-09-07T00:46:30.716Z,5.10
2023-09-07T00:50:35.106Z,4.53
2023-09-07T00:54:42.278Z,4.00
2023-09-07T01:05:43.715Z,6.13
2023-09-07T01:09:55.479Z,6.50
2023-09-07T01:14:01.160Z,4.10
2023-09-07T01:18:27.811Z,3.90
2023-09-07T01:27:02.122Z,6.07
2023-09-07T01:31:12.066Z,3.87
2023-09-07T01:35:19.889Z,4.53
2023-09-07T01:39:25.580Z,5.67
2023-09-07T01:43:29.513Z,5.30
2023-09-07T01:47:38.083Z,5.60
2023-09-07T01:51:43.937Z,5.50
2023-09-07T01:55:49.425Z,4.97
2023-09-07T01:59:54.406Z,3.90
2023-09-07T02:04:00.875Z,5.10
2023-09-07T02:08:09.231Z,5.00
2023-09-07T02:12:16.350Z,5.53
2023-09-07T02:16:24.234Z,5.20
2023-09-07T02:20:28.415Z,5.60
2023-09-07T02:24:32.719Z,4.43
2023-09-07T02:28:38.384Z,5.10
2023-09-07T02:32:45.143Z,7.93
2023-09-07T02:36:49.374Z,5.77
2023-09-07T02:40:53.359Z,6.43
2023-09-07T02:44:59.243Z,5.63
2023-09-07T02:49:31.583Z,6.70
2023-09-07T02:53:36.799Z,6.50
2023-09-07T02:58:32.753Z,8.20
2023-09-07T03:02:38.518Z,6.90
2023-09-07T03:06:45.765Z,6.77
2023-09-07T03:10:51.907Z,7.00
2023-09-07T03:16:02.067Z,6.80
2023-09-07T03:20:16.591Z,7.00
2023-09-07T03:24:28.379Z,7.23
2023-09-07T03:28:36.193Z,9.43
2023-09-07T03:32:41.199Z,8.47
2023-09-07T03:36:46.920Z,10.20
2023-09-07T03:40:50.985Z,9.00
2023-09-07T03:44:59.597Z,8.80
2023-09-07T03:49:04.404Z,8.90
2023-09-07T03:53:10.256Z,8.80
2023-09-07T03:58:04.874Z,8.67
2023-09-07T04:02:09.011Z,9.63
2023-09-07T04:06:30.689Z,10.60
2023-09-07T04:10:36.184Z,8.83
2023-09-07T04:14:58.779Z,9.40
2023-09-07T04:19:03.182Z,9.33
2023-09-07T04:23:29.550Z,10.07
2023-09-07T04:27:38.117Z,9.53
2023-09-07T04:31:54.111Z,10.73
2023-09-07T04:36:11.579Z,9.07
2023-09-07T04:40:18.005Z,9.07
2023-09-07T04:44:51.230Z,10.77
2023-09-07T04:48:57.046Z,7.20
2023-09-07T04:53:02.314Z,7.07
2023-09-07T04:57:32.720Z,7.03
2023-09-07T05:01:38.328Z,6.43
2023-09-07T05:06:11.604Z,6.70
2023-09-07T05:10:15.818Z,6.23
2023-09-07T05:15:14.240Z,5.63
2023-09-07T05:19:21.546Z,6.33
2023-09-07T05:23:34.146Z,5.27
2023-09-07T05:27:38.745Z,5.87
2023-09-07T05:31:43.333Z,6.33
2023-09-07T05:35:48.946Z,5.90
2023-09-07T05:39:58.124Z,7.37
2023-09-07T05:44:02.346Z,7.90
2023-09-07T05:48:20.831Z,6.47
2023-09-07T05:52:33.556Z,6.30
2023-09-07T05:56:37.986Z,7.63
2023-09-07T06:00:49.498Z,6.57
2023-09-07T06:04:53.646Z,7.20
2023-09-07T06:09:00.542Z,6.93
2023-09-07T06:14:07.459Z,6.57
2023-09-07T06:18:11.863Z,6.70
2023-09-07T06:22:17.398Z,6.53
2023-09-07T06:26:23.394Z,7.20
2023-09-07T06:30:30.974Z,6.67
2023-09-07T06:34:36.231Z,6.90
2023-09-07T06:38:41.376Z,7.20
2023-09-07T06:42:48.057Z,6.57
2023-09-07T06:47:04.792Z,6.27
2023-09-07T06:51:11.009Z,7.67
2023-09-07T06:55:43.637Z,6.87
2023-09-07T06:59:49.907Z,7.23
2023-09-07T07:04:19.722Z,5.30
2023-09-07T07:08:24.227Z,4.70
2023-09-07T07:13:27.455Z,5.20
2023-09-07T07:17:33.280Z,3.90
2023-09-07T07:21:44.798Z,5.67
2023-09-07T07:25:51.261Z,5.37
2023-09-07T07:31:03.156Z,6.90
2023-09-07T07:35:09.205Z,3.20
2023-09-07T07:39:17.350Z,3.23
2023-09-07T07:43:21.436Z,4.80
2023-09-07T07:48:16.940Z,4.73
2023-09-07T07:52:24.946Z,3.63
2023-09-07T07:56:32.587Z,3.00
2023-09-07T08:00:42.723Z,3.47
2023-09-07T08:04:46.829Z,4.70
2023-09-07T08:08:54.512Z,3.23
2023-09-07T08:12:59.629Z,3.70
2023-09-07T08:18:10.438Z,3.20
2023-09-07T08:22:17.893Z,2.77
2023-09-07T08:26:25.037Z,4.50
2023-09-07T08:30:32.071Z,3.90
2023-09-07T08:34:41.087Z,4.10
2023-09-07T08:38:44.732Z,3.23
2023-09-07T08:43:44.077Z,4.77
2023-09-07T08:47:49.938Z,4.23
2023-09-07T08:56:23.615Z,4.00
2023-09-07T09:00:54.127Z,3.97
2023-09-07T09:05:00.686Z,3.70
2023-09-07T09:09:08.029Z,2.60
2023-09-07T09:13:12.574Z,4.27
2023-09-07T09:17:20.808Z,2.90
2023-09-07T09:21:27.544Z,3.97
2023-09-07T09:26:01.483Z,3.57
2023-09-07T09:30:08.177Z,4.47
2023-09-07T09:34:21.519Z,2.37
2023-09-07T09:38:27.357Z,3.93
2023-09-07T09:43:09.014Z,3.70
2023-09-07T09:47:14.432Z,2.40
2023-09-07T09:51:18.328Z,4.67
2023-09-07T09:56:36.474Z,2.93
2023-09-07T10:00:54.196Z,2.93
2023-09-07T10:04:57.911Z,2.60
2023-09-07T10:09:18.676Z,3.03
2023-09-07T10:13:36.405Z,3.30
2023-09-07T10:17:54.441Z,5.77
2023-09-07T10:21:59.776Z,2.53
2023-09-07T10:26:13.047Z,3.70
2023-09-07T10:30:20.606Z,4.27
2023-09-07T10:34:39.223Z,2.60
2023-09-07T10:38:43.696Z,3.00
2023-09-07T10:43:03.903Z,3.87
2023-09-07T10:47:09.714Z,2.40
2023-09-07T10:51:26.048Z,3.63
2023-09-07T10:55:30.170Z,4.77
2023-09-07T10:59:49.702Z,3.37
2023-09-07T11:03:53.657Z,3.07
2023-09-07T11:08:19.055Z,4.30
2023-09-07T11:12:23.639Z,2.83
2023-09-07T11:16:51.828Z,2.57
2023-09-07T11:37:34.083Z,4.47
2023-09-07T11:41:37.584Z,4.37
2023-09-07T11:45:48.522Z,3.00
2023-09-07T11:49:54.305Z,4.60
2023-09-07T12:10:04.722Z,3.20
2023-09-07T12:14:08.605Z,2.73
2023-09-07T12:18:15.412Z,3.40
2023-09-07T12:23:08.946Z,6.40
2023-09-07T12:27:52.579Z,3.97
2023-09-07T12:32:26.024Z,2.97
2023-09-07T12:36:31.416Z,3.43
2023-09-07T12:56:22.471Z,5.47
2023-09-07T13:00:53.551Z,6.27
2023-09-07T13:05:47.057Z,5.80
2023-09-07T13:15:40.583Z,4.33
2023-09-07T13:20:19.425Z,3.60
2023-09-07T13:24:25.345Z,4.20
2023-09-07T13:29:44.060Z,4.73
2023-09-07T13:34:14.823Z,4.73
2023-09-07T13:39:07.778Z,4.27
2023-09-07T13:43:41.587Z,5.33
2023-09-07T13:48:11.716Z,3.37
2023-09-07T14:05:20.235Z,4.37
2023-09-07T14:09:34.938Z,5.00
2023-09-07T14:13:40.977Z,4.20
2023-09-07T14:17:46.318Z,2.83
2023-09-07T14:22:43.443Z,5.67
2023-09-07T14:39:14.857Z,5.10
2023-09-07T14:44:34.688Z,3.93
2023-09-07T14:49:05.235Z,2.70
2023-09-07T15:04:38.479Z,3.90
2023-09-07T15:08:46.082Z,5.33
2023-09-07T15:18:37.524Z,4.13
2023-09-07T15:22:43.988Z,3.13
2023-09-07T16:17:59.435Z,2.83
2023-09-07T16:28:13.042Z,2.97
2023-09-07T16:32:21.379Z,3.50
2023-09-07T16:36:25.442Z,4.20
2023-09-07T16:40:31.930Z,6.50
2023-09-07T16:44:37.953Z,3.20
2023-09-07T16:48:42.410Z,3.03
2023-09-07T16:52:51.511Z,9.53
2023-09-07T16:56:59.799Z,3.73
2023-09-07T17:01:14.593Z,5.23
2023-09-07T17:05:49.812Z,3.43
2023-09-07T17:15:53.657Z,5.30
2023-09-07T17:20:10.087Z,3.73
2023-09-07T17:24:16.320Z,7.33
2023-09-07T17:28:20.775Z,5.87
2023-09-07T17:32:26.089Z,5.33
2023-09-07T17:36:40.797Z,5.83
2023-09-07T17:40:44.877Z,9.33
2023-09-07T17:45:16.018Z,4.80
2023-09-07T17:49:22.335Z,3.63
2023-09-07T17:54:07.980Z,4.67
2023-09-07T17:58:14.562Z,4.50
2023-09-07T18:02:43.517Z,5.30
2023-09-07T18:06:48.764Z,5.40
2023-09-07T18:10:52.939Z,3.87
2023-09-07T18:14:58.336Z,3.27
2023-09-07T18:19:13.216Z,5.03
2023-09-07T18:23:19.365Z,7.70
2023-09-07T18:27:27.065Z,3.27
2023-09-07T18:31:34.449Z,3.90
2023-09-07T18:35:40.413Z,5.77
2023-09-07T18:39:44.641Z,4.33
2023-09-07T18:44:49.801Z,3.83
2023-09-07T18:49:03.392Z,6.17
2023-09-07T18:53:21.003Z,5.87
2023-09-07T18:57:25.912Z,3.87
2023-09-07T19:01:30.209Z,3.47
2023-09-07T19:05:35.593Z,3.47
2023-09-07T19:09:43.692Z,6.67
2023-09-07T19:14:02.207Z,5.57
2023-09-07T19:18:24.926Z,3.07
2023-09-07T19:22:53.043Z,5.33
2023-09-07T19:27:12.745Z,4.50
2023-09-07T19:31:31.175Z,5.60
2023-09-07T19:35:55.556Z,7.10
2023-09-07T20:05:54.472Z,4.37
2023-09-07T20:10:15.328Z,5.13
2023-09-07T20:14:45.026Z,4.27
2023-09-07T20:19:04.898Z,3.70
2023-09-07T20:23:36.488Z,4.20
2023-09-07T20:27:40.968Z,5.07
2023-09-07T20:32:06.707Z,3.53
2023-09-07T20:36:10.807Z,4.07
2023-09-07T20:40:17.896Z,7.30
2023-09-07T20:44:21.680Z,4.27
2023-09-07T20:48:33.078Z,5.00
2023-09-07T20:52:37.007Z,3.30
2023-09-07T20:57:02.500Z,5.20
2023-09-07T21:01:06.878Z,5.37
2023-09-07T21:05:10.905Z,4.37
2023-09-07T21:09:16.919Z,5.07
2023-09-07T21:13:22.319Z,5.30
2023-09-07T21:17:31.827Z,4.40
2023-09-07T21:21:35.570Z,3.30
2023-09-07T21:25:39.431Z,2.97
2023-09-07T21:30:04.254Z,4.77
2023-09-07T21:34:08.102Z,4.90
2023-09-07T21:38:12.041Z,4.33
2023-09-07T21:42:16.362Z,3.57
2023-09-07T21:46:21.731Z,2.93
2023-09-07T21:50:26.874Z,4.47
2023-09-07T21:54:31.021Z,5.33
2023-09-07T22:04:36.161Z,2.60
2023-09-07T22:08:40.281Z,5.53
2023-09-07T22:12:50.094Z,3.57
2023-09-07T22:16:54.156Z,4.20
2023-09-07T22:21:01.889Z,5.63
2023-09-07T22:25:07.801Z,3.93
2023-09-07T22:29:12.938Z,4.00
2023-09-07T22:33:27.482Z,5.40
2023-09-07T22:37:32.690Z,4.73
2023-09-07T22:41:38.455Z,3.40
2023-09-07T22:45:44.548Z,3.63
2023-09-07T22:50:06.294Z,4.10
2023-09-07T22:54:11.750Z,4.20
2023-09-07T22:59:22.943Z,3.13
2023-09-07T23:03:54.740Z,5.33
2023-09-07T23:07:59.999Z,4.10
2023-09-07T23:12:05.806Z,3.13
2023-09-07T23:16:10.470Z,4.40
2023-09-07T23:20:16.674Z,4.47
2023-09-07T23:24:48.041Z,5.73
2023-09-07T23:28:53.311Z,5.23
2023-09-07T23:32:57.142Z,6.70
2023-09-07T23:37:05.258Z,4.60
2023-09-07T23:41:09.049Z,5.23
2023-09-07T23:45:14.464Z,5.90
2023-09-07T23:49:22.948Z,5.67
2023-09-07T23:53:26.640Z,6.10
2023-09-07T23:58:44.532Z,5.10
